Time;durP1;ratioP1;P1;durP2;ratioP2;P2;SDS_P1;SDS_P2;PMS_P1;PMS_P2;Temp;Humidity;BMP_temperature;BMP_pressure;BME280_temperature;BME280_humidity;BME280_pressure;Samples;Min_cycle;Max_cycle;Signal;HPM_P1;HPM_P2
2022/01/11 00:01:09;;;;;;;;;;;15.90;39.30;;;;;;8302122;28;19925;-48
2022/01/11 00:05:18;;;;;;;;;;;15.90;39.40;;;;;;8301677;28;20414;-48
2022/01/11 00:09:22;;;;;;;;;;;15.90;39.30;;;;;;8301708;28;19961;-48
2022/01/11 00:13:23;;;;;;;;;;;15.90;39.30;;;;;;8301490;28;19972;-47
2022/01/11 00:17:24;;;;;;;;;;;15.90;39.30;;;;;;8300881;28;19917;-49
2022/01/11 00:21:24;;;;;;;;;;;15.80;39.30;;;;;;8300851;28;19947;-47
2022/01/11 00:25:26;;;;;;;;;;;15.90;39.30;;;;;;8301508;28;20020;-47
2022/01/11 00:29:27;;;;;;;;;;;15.90;39.30;;;;;;8300707;28;19918;-48
2022/01/11 00:33:36;;;;;;;;;;;15.80;39.20;;;;;;8300865;28;20341;-47
2022/01/11 00:37:37;;;;;;;;;;;15.90;39.30;;;;;;8301693;28;19964;-47
2022/01/11 00:41:38;;;;;;;;;;;15.90;39.30;;;;;;8300654;28;20272;-47
2022/01/11 00:45:38;;;;;;;;;;;15.80;39.20;;;;;;8300843;28;19964;-47
2022/01/11 00:49:40;;;;;;;;;;;15.90;39.30;;;;;;8300045;28;19926;-48
2022/01/11 00:53:41;;;;;;;;;;;15.80;39.20;;;;;;8300106;28;19937;-47
2022/01/11 00:57:41;;;;;;;;;;;15.90;39.20;;;;;;8299973;28;19944;-48
2022/01/11 01:01:42;;;;;;;;;;;15.80;39.20;;;;;;8299658;28;20018;-48
2022/01/11 01:05:43;;;;;;;;;;;15.80;39.10;;;;;;8300069;28;20345;-49
2022/01/11 01:10:00;;;;;;;;;;;15.80;39.10;;;;;;8299632;28;19917;-49
2022/01/11 01:14:00;;;;;;;;;;;15.80;39.10;;;;;;8299335;28;20379;-48
2022/01/11 01:18:01;;;;;;;;;;;15.80;39.10;;;;;;8299374;28;19918;-49
2022/01/11 01:22:02;;;;;;;;;;;15.80;39.10;;;;;;8299474;28;19918;-48
2022/01/11 01:26:03;;;;;;;;;;;15.80;39.10;;;;;;8299122;28;19960;-47
2022/01/11 01:30:05;;;;;;;;;;;15.80;39.10;;;;;;8298755;28;19925;-47
2022/01/11 01:34:06;;;;;;;;;;;15.80;39.20;;;;;;8299068;28;19921;-48
2022/01/11 01:38:07;;;;;;;;;;;15.80;39.10;;;;;;8298500;28;19924;-48
2022/01/11 01:42:10;;;;;;;;;;;15.80;39.00;;;;;;8298867;28;20004;-48
2022/01/11 01:46:12;;;;;;;;;;;15.80;39.00;;;;;;8299118;28;20018;-48
2022/01/11 01:50:12;;;;;;;;;;;15.80;39.00;;;;;;8298103;28;19921;-48
2022/01/11 01:54:13;;;;;;;;;;;15.80;39.10;;;;;;8298465;28;20294;-49
2022/01/11 01:58:14;;;;;;;;;;;15.70;39.00;;;;;;8298687;28;20404;-48
2022/01/11 02:02:15;;;;;;;;;;;15.70;39.00;;;;;;8297734;28;19925;-47
2022/01/11 02:06:17;;;;;;;;;;;15.70;39.00;;;;;;8298737;28;20355;-49
2022/01/11 02:10:17;;;;;;;;;;;15.70;39.00;;;;;;8297442;28;19942;-48
2022/01/11 02:14:18;;;;;;;;;;;15.80;39.00;;;;;;8297355;28;19996;-48
2022/01/11 02:18:21;;;;;;;;;;;15.70;39.00;;;;;;8297878;28;19922;-48
2022/01/11 02:22:22;;;;;;;;;;;15.70;39.00;;;;;;8297696;28;20386;-48
2022/01/11 02:26:24;;;;;;;;;;;15.70;39.00;;;;;;8297330;28;19968;-48
2022/01/11 02:30:24;;;;;;;;;;;15.70;39.60;;;;;;8297543;28;19921;-51
2022/01/11 02:34:24;;;;;;;;;;;15.70;39.00;;;;;;8297475;28;20373;-49
2022/01/11 02:38:25;;;;;;;;;;;15.70;39.00;;;;;;8297034;28;20282;-48
2022/01/11 02:42:26;;;;;;;;;;;15.80;39.00;;;;;;8297163;28;19941;-47
2022/01/11 02:46:27;;;;;;;;;;;15.70;39.00;;;;;;8297715;28;20339;-48
2022/01/11 02:50:28;;;;;;;;;;;15.70;39.00;;;;;;8296637;28;19921;-47
2022/01/11 02:54:28;;;;;;;;;;;15.70;39.00;;;;;;8297386;28;19917;-48
2022/01/11 02:58:29;;;;;;;;;;;15.70;39.00;;;;;;8297153;28;19924;-47
2022/01/11 03:02:29;;;;;;;;;;;15.70;38.90;;;;;;8296760;28;20056;-47
2022/01/11 03:06:30;;;;;;;;;;;15.70;38.90;;;;;;8297482;28;19913;-48
2022/01/11 03:10:33;;;;;;;;;;;15.70;39.00;;;;;;8296942;28;20035;-48
2022/01/11 03:14:34;;;;;;;;;;;15.70;39.00;;;;;;8296581;28;19921;-48
2022/01/11 03:18:34;;;;;;;;;;;15.70;38.80;;;;;;8297000;28;20401;-48
2022/01/11 03:22:35;;;;;;;;;;;15.70;39.00;;;;;;8296281;28;19924;-48
2022/01/11 03:26:35;;;;;;;;;;;15.70;38.90;;;;;;8297123;28;19937;-48
2022/01/11 03:30:36;;;;;;;;;;;15.60;38.90;;;;;;8296456;28;19925;-48
2022/01/11 03:34:36;;;;;;;;;;;15.60;38.80;;;;;;8295999;28;20306;-47
2022/01/11 03:38:36;;;;;;;;;;;15.60;38.90;;;;;;8296432;28;19921;-48
2022/01/11 03:42:37;;;;;;;;;;;15.60;38.90;;;;;;8296311;28;19957;-48
2022/01/11 03:46:38;;;;;;;;;;;15.60;38.90;;;;;;8296384;28;19980;-48
2022/01/11 03:50:38;;;;;;;;;;;15.60;38.90;;;;;;8296308;28;19925;-47
2022/01/11 03:54:50;;;;;;;;;;;15.60;38.90;;;;;;8298215;28;20267;-48
2022/01/11 03:58:52;;;;;;;;;;;15.60;38.90;;;;;;8303501;28;20012;-49
2022/01/11 04:02:52;;;;;;;;;;;15.60;38.90;;;;;;8301914;28;19918;-48
2022/01/11 04:06:53;;;;;;;;;;;15.60;38.90;;;;;;8302005;28;19913;-47
2022/01/11 04:10:53;;;;;;;;;;;15.60;38.90;;;;;;8301133;28;19929;-48
2022/01/11 04:14:54;;;;;;;;;;;15.60;39.00;;;;;;8301464;28;19971;-47
2022/01/11 04:18:54;;;;;;;;;;;15.60;39.00;;;;;;8301713;28;19922;-47
2022/01/11 04:22:55;;;;;;;;;;;15.60;38.90;;;;;;8300903;28;19925;-48
2022/01/11 04:26:55;;;;;;;;;;;15.60;39.00;;;;;;8301359;28;20276;-47
2022/01/11 04:31:00;;;;;;;;;;;15.60;38.90;;;;;;8301145;28;19933;-47
2022/01/11 04:35:00;;;;;;;;;;;15.60;38.90;;;;;;8300288;28;19918;-47
2022/01/11 04:39:03;;;;;;;;;;;15.60;38.90;;;;;;8300837;28;20036;-47
2022/01/11 04:43:03;;;;;;;;;;;15.60;38.90;;;;;;8300456;28;19918;-48
2022/01/11 04:47:04;;;;;;;;;;;15.60;38.90;;;;;;8300799;28;19960;-48
2022/01/11 04:51:05;;;;;;;;;;;15.60;38.90;;;;;;8300198;28;19933;-48
2022/01/11 04:55:07;;;;;;;;;;;15.60;38.90;;;;;;8300260;28;19918;-47
2022/01/11 04:59:07;;;;;;;;;;;15.60;38.90;;;;;;8299661;28;19972;-48
2022/01/11 05:03:08;;;;;;;;;;;15.60;38.90;;;;;;8300352;28;19914;-48
2022/01/11 05:07:08;;;;;;;;;;;15.60;38.90;;;;;;8298213;28;19918;-48
2022/01/11 05:11:08;;;;;;;;;;;15.60;38.90;;;;;;8299178;28;19934;-48
2022/01/11 05:15:10;;;;;;;;;;;15.60;38.90;;;;;;8299698;28;19918;-49
2022/01/11 05:19:12;;;;;;;;;;;15.60;38.90;;;;;;8299648;28;19956;-49
2022/01/11 05:23:14;;;;;;;;;;;15.60;38.90;;;;;;8298998;28;19917;-48
2022/01/11 05:27:15;;;;;;;;;;;15.60;38.90;;;;;;8299598;28;19956;-50
2022/01/11 05:31:15;;;;;;;;;;;15.60;38.90;;;;;;8299176;28;20378;-49
2022/01/11 05:35:16;;;;;;;;;;;15.60;38.90;;;;;;8298538;28;19917;-48
2022/01/11 05:39:16;;;;;;;;;;;15.60;38.90;;;;;;8298963;28;19959;-48
2022/01/11 05:43:17;;;;;;;;;;;15.60;38.90;;;;;;8298820;28;19917;-49
2022/01/11 05:47:17;;;;;;;;;;;15.60;38.90;;;;;;8298747;28;19943;-48
2022/01/11 05:51:18;;;;;;;;;;;15.60;38.90;;;;;;8298797;28;19925;-48
2022/01/11 05:55:19;;;;;;;;;;;15.60;38.90;;;;;;8298719;28;19913;-48
2022/01/11 05:59:19;;;;;;;;;;;15.60;38.90;;;;;;8297893;28;19918;-48
2022/01/11 06:03:20;;;;;;;;;;;15.60;38.90;;;;;;8298686;28;20264;-47
2022/01/11 06:07:20;;;;;;;;;;;15.60;38.90;;;;;;8298348;28;19975;-48
2022/01/11 06:11:20;;;;;;;;;;;15.60;38.90;;;;;;8297467;28;19956;-48
2022/01/11 06:15:21;;;;;;;;;;;15.60;38.90;;;;;;8298160;28;19929;-48
2022/01/11 06:19:22;;;;;;;;;;;15.60;38.90;;;;;;8297567;28;19920;-48
2022/01/11 06:23:22;;;;;;;;;;;15.60;38.90;;;;;;8297270;28;20004;-49
2022/01/11 06:27:22;;;;;;;;;;;15.60;39.00;;;;;;8297920;28;19924;-48
2022/01/11 06:31:23;;;;;;;;;;;15.60;38.90;;;;;;8297674;28;19926;-49
2022/01/11 06:35:25;;;;;;;;;;;15.60;38.90;;;;;;8297017;28;19994;-52
2022/01/11 06:39:25;;;;;;;;;;;15.60;38.90;;;;;;8297560;28;19929;-48
2022/01/11 06:43:26;;;;;;;;;;;15.60;39.00;;;;;;8297548;28;19918;-48
2022/01/11 06:47:26;;;;;;;;;;;15.50;38.90;;;;;;8297232;28;19929;-48
2022/01/11 06:51:27;;;;;;;;;;;15.60;39.00;;;;;;8297148;28;20299;-48
2022/01/11 06:55:27;;;;;;;;;;;15.60;38.90;;;;;;8297195;28;19913;-47
2022/01/11 06:59:28;;;;;;;;;;;15.60;38.90;;;;;;8296467;28;19917;-47
2022/01/11 07:03:29;;;;;;;;;;;15.60;38.90;;;;;;8297158;28;19940;-47
2022/01/11 07:07:29;;;;;;;;;;;15.60;38.90;;;;;;8297389;28;20379;-47
2022/01/11 07:11:29;;;;;;;;;;;15.60;38.90;;;;;;8296307;28;19926;-48
2022/01/11 07:15:30;;;;;;;;;;;15.60;38.90;;;;;;8296869;28;20271;-48
2022/01/11 07:19:31;;;;;;;;;;;15.60;38.90;;;;;;8296328;28;19985;-46
2022/01/11 07:23:31;;;;;;;;;;;15.60;38.90;;;;;;8296754;28;20523;-47
2022/01/11 07:27:33;;;;;;;;;;;15.60;38.90;;;;;;8296999;28;19917;-47
2022/01/11 07:31:36;;;;;;;;;;;15.60;38.90;;;;;;8301227;28;19922;-48
2022/01/11 07:35:37;;;;;;;;;;;15.60;38.90;;;;;;8302979;28;19953;-47
2022/01/11 07:39:37;;;;;;;;;;;15.60;38.90;;;;;;8302369;28;20059;-47
2022/01/11 07:43:38;;;;;;;;;;;15.60;38.90;;;;;;8302242;28;19917;-48
2022/01/11 07:47:38;;;;;;;;;;;15.60;39.00;;;;;;8302710;28;20012;-48
2022/01/11 07:51:39;;;;;;;;;;;15.60;38.90;;;;;;8302067;28;20306;-47
2022/01/11 07:55:39;;;;;;;;;;;15.60;38.90;;;;;;8301694;28;19937;-47
2022/01/11 07:59:40;;;;;;;;;;;15.50;38.90;;;;;;8301831;28;20387;-49
2022/01/11 08:03:40;;;;;;;;;;;15.60;39.00;;;;;;8301686;28;19917;-47
2022/01/11 08:07:42;;;;;;;;;;;15.60;39.00;;;;;;8301094;28;19989;-48
2022/01/11 08:11:42;;;;;;;;;;;15.60;38.90;;;;;;8301327;28;19926;-47
2022/01/11 08:15:44;;;;;;;;;;;15.60;38.90;;;;;;8301134;28;20330;-49
2022/01/11 08:19:46;;;;;;;;;;;15.60;38.90;;;;;;8300714;28;20018;-48
2022/01/11 08:23:46;;;;;;;;;;;15.60;38.90;;;;;;8301237;28;19914;-48
2022/01/11 08:27:47;;;;;;;;;;;15.70;39.00;;;;;;8300999;28;19940;-47
2022/01/11 08:31:47;;;;;;;;;;;15.70;39.00;;;;;;8300301;28;20741;-47
2022/01/11 08:35:48;;;;;;;;;;;15.70;39.00;;;;;;8301106;28;19917;-47
2022/01/11 08:39:49;;;;;;;;;;;15.70;39.00;;;;;;8300099;28;19946;-48
2022/01/11 08:43:49;;;;;;;;;;;15.70;39.00;;;;;;8300152;28;19924;-48
2022/01/11 08:47:49;;;;;;;;;;;15.70;38.90;;;;;;8300520;28;20302;-50
2022/01/11 08:51:50;;;;;;;;;;;15.70;38.90;;;;;;8299906;28;19925;-48
2022/01/11 08:55:51;;;;;;;;;;;15.70;38.90;;;;;;8299523;28;19957;-48
2022/01/11 08:59:51;;;;;;;;;;;15.70;39.00;;;;;;8300064;28;19944;-48
2022/01/11 09:03:52;;;;;;;;;;;15.70;38.90;;;;;;8300221;28;19942;-48
2022/01/11 09:07:53;;;;;;;;;;;15.70;38.90;;;;;;8299171;28;20334;-49
2022/01/11 09:11:53;;;;;;;;;;;15.70;38.90;;;;;;8298008;28;19925;-49
2022/01/11 09:15:54;;;;;;;;;;;15.70;38.90;;;;;;8299683;28;20009;-48
2022/01/11 09:19:54;;;;;;;;;;;15.70;38.90;;;;;;8298818;28;19918;-50
2022/01/11 09:23:55;;;;;;;;;;;15.70;38.90;;;;;;8299477;28;19942;-47
2022/01/11 09:27:55;;;;;;;;;;;15.70;38.90;;;;;;8299161;28;19917;-48
2022/01/11 09:31:57;;;;;;;;;;;15.70;38.90;;;;;;8298397;28;20363;-48
2022/01/11 09:35:58;;;;;;;;;;;15.70;39.00;;;;;;8299085;28;20363;-48
2022/01/11 09:39:58;;;;;;;;;;;15.70;38.90;;;;;;8298863;28;19917;-48
2022/01/11 09:43:59;;;;;;;;;;;15.70;38.90;;;;;;8298680;28;19918;-48
2022/01/11 09:47:59;;;;;;;;;;;15.70;38.90;;;;;;8299005;28;19949;-49
2022/01/11 09:52:05;;;;;;;;;;;15.70;38.90;;;;;;8297798;28;19969;-48
2022/01/11 09:56:06;;;;;;;;;;;15.70;38.90;;;;;;8297626;28;20071;-49
2022/01/11 10:00:08;;;;;;;;;;;15.70;38.90;;;;;;8298543;28;19913;-47
2022/01/11 10:04:11;;;;;;;;;;;15.70;38.80;;;;;;8298032;28;20001;-48
2022/01/11 10:08:28;;;;;;;;;;;15.70;38.90;;;;;;8297650;28;19949;-48
2022/01/11 10:12:34;;;;;;;;;;;15.70;38.80;;;;;;8297746;28;19925;-46
2022/01/11 10:16:34;;;;;;;;;;;15.80;38.90;;;;;;8300013;28;19914;-48
2022/01/11 10:20:35;;;;;;;;;;;15.80;39.00;;;;;;8297231;28;19918;-50
2022/01/11 10:24:42;;;;;;;;;;;15.80;39.00;;;;;;8297773;28;19913;-49
2022/01/11 10:28:42;;;;;;;;;;;15.80;39.00;;;;;;8297031;28;20272;-49
2022/01/11 10:32:45;;;;;;;;;;;15.80;39.00;;;;;;8297435;28;19925;-47
2022/01/11 10:36:46;;;;;;;;;;;15.90;39.60;;;;;;8297278;28;19913;-47
2022/01/11 10:40:46;;;;;;;;;;;15.90;39.10;;;;;;8297279;28;20290;-51
2022/01/11 10:44:52;;;;;;;;;;;15.90;39.10;;;;;;8297472;28;20429;-51
2022/01/11 10:48:52;;;;;;;;;;;15.90;39.10;;;;;;8297462;28;19947;-52
2022/01/11 10:52:53;;;;;;;;;;;15.90;39.00;;;;;;8296525;28;19925;-51
2022/01/11 10:56:54;;;;;;;;;;;15.90;39.00;;;;;;8296841;28;20375;-51
2022/01/11 11:00:56;;;;;;;;;;;15.90;39.00;;;;;;8297078;28;19940;-49
2022/01/11 11:04:58;;;;;;;;;;;15.90;39.10;;;;;;8300354;28;19920;-49
2022/01/11 11:08:58;;;;;;;;;;;15.90;38.90;;;;;;8303928;28;19924;-49
2022/01/11 11:12:59;;;;;;;;;;;16.00;39.50;;;;;;8303469;28;20395;-50
2022/01/11 11:17:00;;;;;;;;;;;16.00;38.90;;;;;;8302967;28;19924;-49
2022/01/11 11:21:33;;;;;;;;;;;16.00;38.90;;;;;;8303279;28;19921;-47
2022/01/11 11:25:33;;;;;;;;;;;15.90;39.50;;;;;;8283541;28;19925;-49
2022/01/11 11:29:35;;;;;;;;;;;16.00;39.00;;;;;;8303489;28;19913;-49
2022/01/11 11:33:36;;;;;;;;;;;15.90;39.00;;;;;;8303076;28;20017;-49
2022/01/11 11:37:38;;;;;;;;;;;15.90;38.90;;;;;;8302334;28;19917;-50
2022/01/11 11:41:40;;;;;;;;;;;15.90;38.90;;;;;;8302617;28;19928;-50
2022/01/11 11:45:41;;;;;;;;;;;15.90;39.00;;;;;;8302605;28;19922;-49
2022/01/11 11:49:48;;;;;;;;;;;15.90;39.00;;;;;;8302198;28;19914;-49
2022/01/11 11:53:49;;;;;;;;;;;15.90;38.90;;;;;;8302562;28;20023;-47
2022/01/11 11:57:51;;;;;;;;;;;16.00;39.00;;;;;;8301915;28;20276;-49
2022/01/11 12:01:51;;;;;;;;;;;15.90;38.90;;;;;;8301469;28;19930;-52
2022/01/11 12:05:53;;;;;;;;;;;16.00;39.00;;;;;;8302223;28;19937;-48
2022/01/11 12:09:53;;;;;;;;;;;15.90;38.90;;;;;;8302120;28;20023;-49
2022/01/11 12:13:55;;;;;;;;;;;15.90;38.90;;;;;;8301285;28;19926;-49
2022/01/11 12:17:55;;;;;;;;;;;15.90;38.80;;;;;;8301005;28;19917;-51
2022/01/11 12:22:05;;;;;;;;;;;15.90;38.80;;;;;;8301190;28;20334;-50
2022/01/11 12:26:13;;;;;;;;;;;15.90;38.80;;;;;;8300848;28;19925;-50
2022/01/11 12:30:16;;;;;;;;;;;15.90;38.80;;;;;;8307775;28;19945;-48
2022/01/11 12:34:17;;;;;;;;;;;15.90;38.70;;;;;;8300970;28;19926;-49
2022/01/11 12:38:18;;;;;;;;;;;15.90;38.70;;;;;;8300888;28;19924;-50
2022/01/11 12:42:26;;;;;;;;;;;15.90;38.80;;;;;;8300824;28;20370;-48
2022/01/11 12:46:46;;;;;;;;;;;15.90;38.80;;;;;;8301153;28;19922;-50
2022/01/11 12:50:58;;;;;;;;;;;15.90;38.70;;;;;;8300223;28;19917;-50
2022/01/11 12:54:58;;;;;;;;;;;15.90;38.70;;;;;;8300769;28;19914;-53
2022/01/11 12:58:59;;;;;;;;;;;15.90;38.80;;;;;;8299944;28;20068;-49
2022/01/11 13:03:03;;;;;;;;;;;15.90;38.70;;;;;;8300345;28;20313;-48
2022/01/11 13:07:14;;;;;;;;;;;15.90;38.80;;;;;;8300130;28;19917;-48
2022/01/11 13:11:18;;;;;;;;;;;16.00;38.80;;;;;;8299315;28;19926;-48
2022/01/11 13:15:24;;;;;;;;;;;15.90;38.70;;;;;;8299587;28;19921;-50
2022/01/11 13:19:25;;;;;;;;;;;16.00;38.80;;;;;;8302898;28;19924;-49
2022/01/11 13:23:32;;;;;;;;;;;16.00;38.70;;;;;;8299148;28;19922;-49
2022/01/11 13:27:33;;;;;;;;;;;16.00;38.70;;;;;;8298827;28;20295;-48
2022/01/11 13:31:37;;;;;;;;;;;16.00;38.70;;;;;;8298707;28;19925;-50
2022/01/11 13:35:37;;;;;;;;;;;16.00;38.70;;;;;;8299073;28;20008;-48
2022/01/11 13:39:40;;;;;;;;;;;16.00;38.60;;;;;;8299211;28;20370;-52
2022/01/11 13:43:42;;;;;;;;;;;16.00;38.60;;;;;;8298957;28;20379;-50
2022/01/11 13:47:42;;;;;;;;;;;16.00;38.60;;;;;;8298723;28;19929;-50
2022/01/11 13:51:52;;;;;;;;;;;16.00;38.60;;;;;;8394886;27;19925;-49
2022/01/11 13:55:57;;;;;;;;;;;16.00;38.50;;;;;;8358345;28;19917;-51
2022/01/11 13:59:59;;;;;;;;;;;16.00;38.50;;;;;;8357969;28;19920;-49
2022/01/11 14:04:19;;;;;;;;;;;16.00;38.50;;;;;;8340775;28;19922;-48
2022/01/11 14:08:29;;;;;;;;;;;16.00;38.50;;;;;;8316966;28;19925;-50
2022/01/11 14:12:38;;;;;;;;;;;16.00;38.50;;;;;;8325375;28;19917;-49
2022/01/11 14:16:40;;;;;;;;;;;16.00;38.40;;;;;;8324982;28;19917;-48
2022/01/11 14:20:41;;;;;;;;;;;16.00;38.50;;;;;;8324385;28;19925;-50
2022/01/11 14:24:49;;;;;;;;;;;16.00;38.40;;;;;;8325066;28;19968;-48
2022/01/11 14:28:50;;;;;;;;;;;16.00;38.40;;;;;;8324397;28;19925;-49
2022/01/11 14:32:52;;;;;;;;;;;16.00;38.50;;;;;;8323838;28;19918;-51
2022/01/11 14:36:52;;;;;;;;;;;16.00;38.60;;;;;;8344504;28;20337;-49
2022/01/11 14:40:58;;;;;;;;;;;16.00;38.60;;;;;;8353485;28;19967;-50
2022/01/11 14:45:14;;;;;;;;;;;16.00;38.50;;;;;;8364331;28;20358;-52
2022/01/11 14:49:17;;;;;;;;;;;16.00;38.50;;;;;;8401300;28;19928;-51
2022/01/11 14:53:17;;;;;;;;;;;16.00;38.50;;;;;;8422362;28;20408;-49
2022/01/11 14:57:19;;;;;;;;;;;16.00;38.50;;;;;;8423162;28;19916;-49
2022/01/11 15:01:21;;;;;;;;;;;16.00;38.50;;;;;;8411335;28;19917;-49
2022/01/11 15:05:27;;;;;;;;;;;16.00;38.50;;;;;;8400215;28;20342;-49
2022/01/11 15:09:33;;;;;;;;;;;16.00;38.50;;;;;;8400335;28;19928;-49
2022/01/11 15:13:37;;;;;;;;;;;16.00;38.40;;;;;;8400278;28;19920;-49
2022/01/11 15:17:38;;;;;;;;;;;16.00;38.40;;;;;;8399666;28;19917;-49
2022/01/11 15:21:39;;;;;;;;;;;16.00;38.40;;;;;;8399147;28;20362;-49
2022/01/11 15:25:39;;;;;;;;;;;16.00;38.50;;;;;;8400356;28;20376;-52
2022/01/11 15:29:40;;;;;;;;;;;16.00;38.40;;;;;;8393207;28;19925;-49
2022/01/11 15:33:41;;;;;;;;;;;16.00;38.50;;;;;;8365941;28;19924;-50
2022/01/11 15:37:42;;;;;;;;;;;16.00;38.50;;;;;;8366738;28;20325;-51
2022/01/11 15:41:43;;;;;;;;;;;16.00;38.40;;;;;;8348333;28;20278;-48
2022/01/11 15:45:44;;;;;;;;;;;16.00;38.40;;;;;;8366415;28;19944;-50
2022/01/11 15:49:44;;;;;;;;;;;16.00;38.40;;;;;;8366169;28;20374;-50
2022/01/11 15:53:45;;;;;;;;;;;16.00;38.40;;;;;;8366029;28;20366;-49
2022/01/11 15:57:45;;;;;;;;;;;16.00;38.40;;;;;;8365313;28;19917;-49
2022/01/11 16:01:47;;;;;;;;;;;16.00;38.40;;;;;;8365954;28;20305;-49
2022/01/11 16:05:47;;;;;;;;;;;16.00;38.40;;;;;;8366045;28;20003;-50
2022/01/11 16:09:48;;;;;;;;;;;15.90;38.30;;;;;;8364849;28;19932;-49
2022/01/11 16:13:48;;;;;;;;;;;16.00;38.40;;;;;;8364368;28;19917;-48
2022/01/11 16:17:49;;;;;;;;;;;16.00;38.30;;;;;;8365466;28;20034;-50
2022/01/11 16:21:49;;;;;;;;;;;16.00;38.30;;;;;;8364672;28;19963;-49
2022/01/11 16:25:51;;;;;;;;;;;16.00;38.30;;;;;;8365296;28;19913;-49
2022/01/11 16:29:51;;;;;;;;;;;16.00;38.30;;;;;;8364185;28;20020;-49
2022/01/11 16:33:52;;;;;;;;;;;16.00;38.30;;;;;;8364834;28;19951;-51
2022/01/11 16:37:53;;;;;;;;;;;16.00;38.30;;;;;;8364815;28;20008;-50
2022/01/11 16:46:12;;;;;;;;;;;16.00;38.40;;;;;;8364819;28;20281;-53
2022/01/11 16:50:13;;;;;;;;;;;16.00;38.30;;;;;;8364136;28;19924;-49
2022/01/11 16:54:13;;;;;;;;;;;16.10;38.40;;;;;;8363912;28;19917;-52
2022/01/11 16:58:14;;;;;;;;;;;16.10;38.30;;;;;;8363707;28;19917;-48
2022/01/11 17:02:14;;;;;;;;;;;16.10;38.20;;;;;;8362972;28;19916;-48
2022/01/11 17:06:17;;;;;;;;;;;16.10;38.20;;;;;;8363415;28;19913;-49
2022/01/11 17:10:19;;;;;;;;;;;16.20;38.20;;;;;;8363338;28;20344;-49
2022/01/11 17:14:19;;;;;;;;;;;16.10;38.20;;;;;;8357052;28;20378;-50
2022/01/11 17:18:20;;;;;;;;;;;16.20;38.20;;;;;;8362820;28;19924;-48
2022/01/11 17:22:20;;;;;;;;;;;16.20;38.20;;;;;;8363344;28;19995;-49
2022/01/11 17:26:21;;;;;;;;;;;16.20;38.20;;;;;;8363222;28;19913;-49
2022/01/11 17:30:22;;;;;;;;;;;16.20;38.30;;;;;;8362441;28;20057;-52
2022/01/11 17:34:25;;;;;;;;;;;16.20;38.30;;;;;;8363384;28;19916;-49
2022/01/11 17:38:25;;;;;;;;;;;16.20;38.30;;;;;;8363175;28;19928;-50
2022/01/11 17:42:25;;;;;;;;;;;16.20;38.20;;;;;;8362896;28;20333;-48
2022/01/11 17:46:26;;;;;;;;;;;16.10;38.10;;;;;;8363248;28;19970;-49
2022/01/11 17:50:27;;;;;;;;;;;16.10;38.10;;;;;;8363129;28;19931;-48
2022/01/11 17:54:27;;;;;;;;;;;16.20;38.20;;;;;;8362621;28;19988;-47
2022/01/11 17:58:28;;;;;;;;;;;16.20;38.10;;;;;;8363018;28;19913;-50
2022/01/11 18:02:28;;;;;;;;;;;16.10;38.10;;;;;;8362591;28;20004;-50
2022/01/11 18:06:29;;;;;;;;;;;16.10;38.10;;;;;;8362009;28;19913;-49
2022/01/11 18:10:29;;;;;;;;;;;16.10;38.10;;;;;;8362806;28;20382;-50
2022/01/11 18:14:30;;;;;;;;;;;16.10;38.00;;;;;;8362421;28;19913;-50
2022/01/11 18:18:30;;;;;;;;;;;16.10;38.10;;;;;;8361677;28;19997;-51
2022/01/11 18:22:30;;;;;;;;;;;16.10;38.10;;;;;;8362130;28;19913;-48
2022/01/11 18:26:31;;;;;;;;;;;16.10;38.10;;;;;;8362367;28;19921;-47
2022/01/11 18:30:34;;;;;;;;;;;16.10;38.10;;;;;;8361538;28;19974;-51
2022/01/11 18:34:35;;;;;;;;;;;16.10;38.10;;;;;;8361860;28;20280;-48
2022/01/11 18:38:35;;;;;;;;;;;16.10;38.00;;;;;;8368312;28;19987;-47
2022/01/11 18:42:37;;;;;;;;;;;16.10;38.10;;;;;;8367524;28;19917;-48
2022/01/11 18:46:37;;;;;;;;;;;16.10;38.00;;;;;;8368413;28;19971;-47
2022/01/11 18:50:38;;;;;;;;;;;16.10;38.00;;;;;;8367800;28;20501;-52
2022/01/11 18:54:38;;;;;;;;;;;16.10;38.00;;;;;;8367504;28;19947;-50
2022/01/11 18:58:39;;;;;;;;;;;16.00;37.90;;;;;;8368080;28;19966;-47
2022/01/11 19:02:40;;;;;;;;;;;16.10;38.00;;;;;;8367534;28;19940;-48
2022/01/11 19:06:43;;;;;;;;;;;16.10;38.00;;;;;;8367282;28;19924;-48
2022/01/11 19:10:44;;;;;;;;;;;16.10;38.00;;;;;;8367250;28;19925;-47
2022/01/11 19:14:46;;;;;;;;;;;16.00;38.00;;;;;;8367276;28;19913;-47
2022/01/11 19:18:46;;;;;;;;;;;16.00;38.00;;;;;;8366741;28;20007;-50
2022/01/11 19:22:47;;;;;;;;;;;16.00;38.00;;;;;;8367138;28;19928;-49
2022/01/11 19:26:49;;;;;;;;;;;16.00;38.00;;;;;;8367358;28;19921;-49
2022/01/11 19:30:50;;;;;;;;;;;16.10;37.90;;;;;;8366230;28;19925;-50
2022/01/11 19:34:51;;;;;;;;;;;16.00;37.80;;;;;;8366671;28;19944;-46
2022/01/11 19:38:52;;;;;;;;;;;16.00;37.90;;;;;;8366251;28;19913;-47
2022/01/11 19:42:53;;;;;;;;;;;16.00;37.80;;;;;;8366180;28;19917;-47
2022/01/11 19:46:54;;;;;;;;;;;16.00;38.30;;;;;;8366389;28;19917;-51
2022/01/11 19:51:00;;;;;;;;;;;16.00;37.80;;;;;;8365746;28;19924;-52
2022/01/11 19:55:01;;;;;;;;;;;16.00;37.90;;;;;;8374103;28;19916;-48
2022/01/11 19:59:02;;;;;;;;;;;16.00;37.80;;;;;;8366016;28;19912;-48
2022/01/11 20:03:02;;;;;;;;;;;16.00;37.80;;;;;;8364535;28;20320;-50
2022/01/11 20:07:03;;;;;;;;;;;16.00;37.80;;;;;;8366257;28;19912;-49
2022/01/11 20:11:06;;;;;;;;;;;16.00;37.80;;;;;;8365519;28;19932;-46
2022/01/11 20:15:08;;;;;;;;;;;16.00;37.80;;;;;;8365067;28;20285;-48
2022/01/11 20:19:10;;;;;;;;;;;16.00;37.70;;;;;;8365368;28;19913;-47
2022/01/11 20:27:30;;;;;;;;;;;16.00;37.70;;;;;;8364961;28;19923;-50
2022/01/11 20:31:32;;;;;;;;;;;16.00;37.70;;;;;;8364782;28;20373;-48
2022/01/11 20:35:32;;;;;;;;;;;16.00;37.70;;;;;;8364731;28;20374;-52
2022/01/11 20:39:37;;;;;;;;;;;16.00;37.70;;;;;;8364233;28;19917;-49
2022/01/11 20:43:37;;;;;;;;;;;16.00;37.70;;;;;;8364774;28;19912;-48
2022/01/11 20:47:40;;;;;;;;;;;16.00;37.70;;;;;;8364697;28;19964;-48
2022/01/11 20:51:50;;;;;;;;;;;16.00;37.60;;;;;;8363508;28;19925;-50
2022/01/11 20:55:55;;;;;;;;;;;16.00;37.60;;;;;;8364398;28;19920;-52
2022/01/11 20:59:55;;;;;;;;;;;15.90;37.60;;;;;;8362970;28;19923;-50
2022/01/11 21:03:56;;;;;;;;;;;15.90;37.60;;;;;;8364366;28;19917;-47
2022/01/11 21:07:56;;;;;;;;;;;15.90;37.60;;;;;;8364002;28;19959;-48
2022/01/11 21:11:57;;;;;;;;;;;15.90;37.60;;;;;;8363217;28;19925;-47
2022/01/11 21:16:16;;;;;;;;;;;15.90;37.60;;;;;;8363372;28;19921;-48
2022/01/11 21:20:17;;;;;;;;;;;16.00;37.60;;;;;;8363430;28;20336;-49
2022/01/11 21:24:17;;;;;;;;;;;15.90;37.60;;;;;;8362846;28;19917;-49
2022/01/11 21:28:19;;;;;;;;;;;15.90;37.60;;;;;;8345589;28;19974;-48
2022/01/11 21:32:19;;;;;;;;;;;15.90;37.50;;;;;;8363318;28;19920;-47
2022/01/11 21:36:20;;;;;;;;;;;15.90;37.50;;;;;;8362641;28;19966;-49
2022/01/11 21:40:20;;;;;;;;;;;15.90;37.50;;;;;;8362859;28;19924;-47
2022/01/11 21:44:27;;;;;;;;;;;15.90;37.40;;;;;;8362921;28;19940;-49
2022/01/11 21:48:27;;;;;;;;;;;15.90;37.40;;;;;;8363558;28;20352;-49
2022/01/11 21:52:28;;;;;;;;;;;15.90;37.40;;;;;;8362943;28;19925;-49
2022/01/11 21:56:29;;;;;;;;;;;15.90;37.50;;;;;;8363259;28;19923;-49
2022/01/11 22:00:30;;;;;;;;;;;15.90;37.50;;;;;;8362019;28;19971;-50
2022/01/11 22:04:31;;;;;;;;;;;15.90;37.50;;;;;;8362816;28;19917;-48
2022/01/11 22:08:31;;;;;;;;;;;15.90;37.50;;;;;;8362974;28;19924;-48
2022/01/11 22:12:34;;;;;;;;;;;15.90;37.50;;;;;;8366701;28;19917;-48
2022/01/11 22:16:51;;;;;;;;;;;15.90;37.40;;;;;;8369299;28;20293;-48
2022/01/11 22:20:52;;;;;;;;;;;15.90;37.40;;;;;;8371394;28;20366;-48
2022/01/11 22:24:53;;;;;;;;;;;15.90;37.40;;;;;;8368720;28;19923;-48
2022/01/11 22:28:53;;;;;;;;;;;16.00;37.30;;;;;;8369049;28;20396;-48
2022/01/11 22:32:53;;;;;;;;;;;16.00;37.30;;;;;;8368329;28;19917;-49
2022/01/11 22:36:55;;;;;;;;;;;16.00;37.30;;;;;;8368473;28;19970;-48
2022/01/11 22:40:57;;;;;;;;;;;16.00;37.20;;;;;;8368473;28;20238;-48
2022/01/11 22:44:58;;;;;;;;;;;16.00;37.10;;;;;;8367823;28;20034;-48
2022/01/11 22:48:59;;;;;;;;;;;16.00;37.20;;;;;;8367885;28;20465;-47
2022/01/11 22:53:00;;;;;;;;;;;16.00;37.20;;;;;;8368103;28;19916;-48
2022/01/11 22:57:00;;;;;;;;;;;16.00;37.10;;;;;;8367503;28;19996;-52
2022/01/11 23:01:04;;;;;;;;;;;16.00;37.20;;;;;;8366555;28;19970;-48
2022/01/11 23:05:05;;;;;;;;;;;15.90;37.10;;;;;;8367123;28;19923;-48
2022/01/11 23:09:08;;;;;;;;;;;15.90;37.20;;;;;;8367078;28;20326;-46
2022/01/11 23:13:43;;;;;;;;;;;15.90;37.20;;;;;;8367793;28;20298;-47
2022/01/11 23:17:32;;;;;;;;;;;15.90;37.20;;;;;;8367080;28;20393;-47
2022/01/11 23:21:32;;;;;;;;;;;15.90;37.20;;;;;;8366195;28;20007;-47
2022/01/11 23:25:33;;;;;;;;;;;15.90;37.20;;;;;;8366952;28;19912;-47
2022/01/11 23:29:36;;;;;;;;;;;15.90;37.20;;;;;;8366782;28;20023;-47
2022/01/11 23:33:37;;;;;;;;;;;15.90;37.20;;;;;;8366560;28;19917;-47